createdAt,value
2022-11-29T00:00:54.483Z,32.40
2022-11-29T00:01:54.571Z,33.60
2022-11-29T00:02:54.552Z,34.00
2022-11-29T00:03:54.430Z,35.70
2022-11-29T00:04:54.438Z,37.80
2022-11-29T00:05:54.409Z,37.80
2022-11-29T00:06:54.390Z,38.00
2022-11-29T00:07:54.469Z,37.10
2022-11-29T00:08:54.363Z,39.90
2022-11-29T00:09:54.370Z,36.10
2022-11-29T00:10:54.341Z,37.30
2022-11-29T00:11:54.333Z,35.70
2022-11-29T00:12:54.338Z,35.20
2022-11-29T00:13:54.302Z,33.50
2022-11-29T00:14:54.305Z,34.70
2022-11-29T00:15:54.289Z,38.60
2022-11-29T00:16:54.341Z,33.10
2022-11-29T00:17:54.251Z,38.50
2022-11-29T00:18:54.234Z,38.80
2022-11-29T00:19:54.238Z,36.60
2022-11-29T00:20:54.209Z,37.60
2022-11-29T00:21:54.204Z,40.10
2022-11-29T00:22:54.182Z,43.60
2022-11-29T00:23:54.171Z,46.20
2022-11-29T00:24:54.172Z,40.20
2022-11-29T00:25:54.143Z,42.20
2022-11-29T00:26:54.134Z,38.00
2022-11-29T00:27:54.118Z,44.60
2022-11-29T00:28:54.133Z,40.40
2022-11-29T00:29:54.113Z,40.20
2022-11-29T00:30:54.110Z,41.10
2022-11-29T00:31:54.068Z,38.20
2022-11-29T00:32:54.056Z,34.60
2022-11-29T00:33:54.043Z,37.10
2022-11-29T00:34:54.046Z,36.30
2022-11-29T00:35:54.041Z,36.40
2022-11-29T00:36:54.010Z,34.90
2022-11-29T00:37:53.990Z,35.20
2022-11-29T00:38:53.975Z,37.80
2022-11-29T00:39:53.978Z,32.40
2022-11-29T00:40:53.951Z,39.10
2022-11-29T00:41:53.942Z,39.30
2022-11-29T00:42:53.923Z,38.60
2022-11-29T00:43:53.913Z,34.30
2022-11-29T00:44:53.995Z,38.10
2022-11-29T00:45:53.964Z,43.50
2022-11-29T00:46:53.872Z,44.80
2022-11-29T00:47:53.862Z,39.40
2022-11-29T00:48:53.852Z,41.10
2022-11-29T00:49:53.866Z,39.10
2022-11-29T00:50:53.822Z,38.70
2022-11-29T00:51:53.811Z,49.70
2022-11-29T00:52:53.796Z,47.10
2022-11-29T00:53:53.781Z,45.50
2022-11-29T00:54:53.767Z,39.00
2022-11-29T00:55:53.774Z,43.40
2022-11-29T00:56:53.742Z,44.20
2022-11-29T00:57:53.734Z,47.60
2022-11-29T00:58:53.721Z,43.40
2022-11-29T00:59:53.702Z,48.60
2022-11-29T01:00:53.803Z,46.50
2022-11-29T01:01:53.680Z,46.70
2022-11-29T01:02:53.679Z,53.70
2022-11-29T01:03:53.650Z,65.40
2022-11-29T01:04:53.640Z,44.10
2022-11-29T01:05:53.647Z,51.60
2022-11-29T01:06:53.614Z,47.00
2022-11-29T01:07:53.678Z,49.90
2022-11-29T01:08:53.589Z,44.80
2022-11-29T01:09:53.576Z,42.00
2022-11-29T01:10:53.584Z,52.20
2022-11-29T01:11:53.549Z,47.80
2022-11-29T01:12:53.536Z,49.40
2022-11-29T01:13:53.520Z,54.40
2022-11-29T01:14:53.510Z,60.10
2022-11-29T01:15:53.517Z,51.50
2022-11-29T01:16:53.572Z,58.20
2022-11-29T01:17:53.486Z,53.00
2022-11-29T01:18:53.459Z,60.10
2022-11-29T01:19:53.444Z,54.30
2022-11-29T01:20:53.448Z,57.20
2022-11-29T01:21:53.417Z,63.60
2022-11-29T01:22:53.406Z,50.60
2022-11-29T01:23:53.392Z,64.50
2022-11-29T01:24:53.383Z,65.70
2022-11-29T01:25:53.382Z,54.10
2022-11-29T01:26:53.355Z,58.30
2022-11-29T01:27:53.340Z,64.10
2022-11-29T01:28:53.327Z,62.00
2022-11-29T01:29:53.325Z,53.80
2022-11-29T01:30:53.380Z,48.30
2022-11-29T01:31:53.287Z,59.30
2022-11-29T01:32:53.296Z,56.00
2022-11-29T01:33:53.265Z,64.80
2022-11-29T01:34:53.251Z,53.00
2022-11-29T01:35:53.254Z,60.00
2022-11-29T01:36:53.236Z,64.20
2022-11-29T01:37:53.215Z,49.40
2022-11-29T01:38:53.206Z,49.70
2022-11-29T01:39:53.188Z,51.10
2022-11-29T01:40:53.207Z,62.30
2022-11-29T01:41:53.158Z,57.30
2022-11-29T01:42:53.147Z,61.80
2022-11-29T01:43:53.158Z,54.40
2022-11-29T01:44:53.126Z,51.90
2022-11-29T01:45:53.153Z,54.40
2022-11-29T01:46:53.111Z,58.60
2022-11-29T01:47:53.081Z,54.40
2022-11-29T01:48:53.091Z,52.10
2022-11-29T01:49:53.057Z,52.40
2022-11-29T01:50:53.046Z,51.30
2022-11-29T01:51:53.048Z,59.10
2022-11-29T01:52:53.023Z,53.80
2022-11-29T01:53:53.007Z,48.90
2022-11-29T01:54:52.995Z,46.10
2022-11-29T01:55:53.039Z,47.40
2022-11-29T01:56:52.987Z,49.10
2022-11-29T01:57:52.963Z,50.40
2022-11-29T01:58:52.941Z,45.80
2022-11-29T01:59:52.926Z,49.30
2022-11-29T02:00:53.001Z,46.60
2022-11-29T02:01:52.918Z,47.50
2022-11-29T02:02:52.950Z,50.00
2022-11-29T02:03:52.875Z,47.20
2022-11-29T02:04:52.883Z,49.20
2022-11-29T02:05:52.851Z,45.30
2022-11-29T02:06:52.853Z,44.80
2022-11-29T02:07:52.917Z,46.10
2022-11-29T02:08:52.815Z,53.10
2022-11-29T02:09:52.801Z,52.20
2022-11-29T02:10:52.785Z,50.20
2022-11-29T02:11:52.787Z,56.60
2022-11-29T02:12:52.777Z,51.30
2022-11-29T02:13:52.749Z,44.20
2022-11-29T02:14:52.734Z,58.70
2022-11-29T02:15:52.771Z,65.30
2022-11-29T02:16:56.558Z,64.50
2022-11-29T02:17:52.710Z,60.00
2022-11-29T02:18:52.688Z,54.30
2022-11-29T02:19:52.682Z,55.00
2022-11-29T02:20:52.685Z,59.30
2022-11-29T02:21:52.648Z,55.10
2022-11-29T02:22:52.649Z,73.60
2022-11-29T02:23:52.621Z,62.40
2022-11-29T02:24:52.616Z,53.50
2022-11-29T02:25:52.593Z,66.00
2022-11-29T02:26:52.579Z,81.90
2022-11-29T02:27:52.582Z,76.70
2022-11-29T02:28:52.561Z,70.00
2022-11-29T02:29:52.540Z,82.00
2022-11-29T02:30:52.568Z,60.50
2022-11-29T02:31:52.514Z,52.40
2022-11-29T02:32:52.515Z,51.40
2022-11-29T02:33:52.486Z,49.30
2022-11-29T02:34:52.478Z,48.40
2022-11-29T02:35:52.461Z,59.70
2022-11-29T02:36:52.473Z,47.70
2022-11-29T02:37:52.453Z,49.90
2022-11-29T02:38:52.430Z,48.20
2022-11-29T02:39:52.416Z,51.70
2022-11-29T02:40:52.400Z,52.60
2022-11-29T02:41:52.382Z,56.10
2022-11-29T02:42:56.429Z,50.10
2022-11-29T02:43:52.358Z,49.90
2022-11-29T02:44:52.347Z,49.90
2022-11-29T02:45:52.412Z,54.80
2022-11-29T02:46:52.321Z,50.20
2022-11-29T02:47:52.320Z,53.40
2022-11-29T02:48:52.298Z,50.80
2022-11-29T02:49:52.292Z,54.40
2022-11-29T02:50:52.269Z,55.10
2022-11-29T02:51:52.256Z,51.40
2022-11-29T02:52:52.277Z,50.70
2022-11-29T02:53:52.231Z,52.20
2022-11-29T02:54:52.224Z,54.60
2022-11-29T02:55:52.203Z,57.70
2022-11-29T02:56:52.191Z,52.80
2022-11-29T02:57:52.198Z,48.40
2022-11-29T02:58:52.166Z,48.70
2022-11-29T02:59:52.151Z,49.40
2022-11-29T03:00:52.149Z,50.70
2022-11-29T03:01:52.230Z,53.60
2022-11-29T03:02:52.243Z,56.20
2022-11-29T03:03:52.102Z,47.60
2022-11-29T03:04:52.087Z,50.60
2022-11-29T03:05:52.082Z,56.00
2022-11-29T03:06:52.062Z,50.30
2022-11-29T03:07:52.081Z,63.60
2022-11-29T03:08:52.085Z,54.40
2022-11-29T03:09:52.025Z,62.30
2022-11-29T03:10:52.015Z,53.10
2022-11-29T03:11:51.996Z,48.60
2022-11-29T03:12:51.998Z,51.80
2022-11-29T03:13:51.973Z,50.10
2022-11-29T03:14:51.959Z,53.60
2022-11-29T03:15:51.998Z,46.30
2022-11-29T03:16:51.933Z,63.10
2022-11-29T03:17:51.935Z,49.60
2022-11-29T03:18:51.910Z,55.60
2022-11-29T03:19:51.898Z,67.50
2022-11-29T03:20:51.884Z,74.50
2022-11-29T03:21:51.870Z,67.10
2022-11-29T03:22:51.882Z,73.40
2022-11-29T03:23:51.839Z,72.90
2022-11-29T03:24:51.856Z,61.70
2022-11-29T03:25:51.815Z,76.50
2022-11-29T03:26:51.801Z,56.20
2022-11-29T03:27:51.790Z,62.00
2022-11-29T03:28:51.798Z,69.80
2022-11-29T03:29:51.763Z,67.40
2022-11-29T03:30:51.783Z,61.10
2022-11-29T03:31:51.736Z,62.20
2022-11-29T03:32:51.724Z,63.90
2022-11-29T03:33:51.727Z,60.60
2022-11-29T03:34:56.860Z,60.40
2022-11-29T03:35:51.685Z,63.70
2022-11-29T03:36:51.674Z,59.90
2022-11-29T03:37:51.664Z,68.50
2022-11-29T03:38:51.662Z,64.10
2022-11-29T03:39:51.630Z,67.50
2022-11-29T03:40:51.645Z,56.10
2022-11-29T03:41:51.617Z,62.40
2022-11-29T03:42:51.598Z,59.20
2022-11-29T03:43:51.593Z,57.80
2022-11-29T03:44:51.574Z,62.20
2022-11-29T03:45:51.576Z,64.70
2022-11-29T03:46:51.551Z,59.70
2022-11-29T03:47:51.528Z,62.80
2022-11-29T03:48:51.547Z,62.90
2022-11-29T03:49:51.507Z,69.80
2022-11-29T03:50:51.493Z,71.10
2022-11-29T03:51:51.482Z,61.70
2022-11-29T03:52:51.466Z,64.30
2022-11-29T03:53:51.469Z,69.60
2022-11-29T03:54:51.488Z,69.30
2022-11-29T03:55:51.433Z,73.10
2022-11-29T03:56:51.437Z,71.00
2022-11-29T03:57:51.402Z,69.20
2022-11-29T03:58:51.406Z,70.90
2022-11-29T03:59:51.377Z,63.60
2022-11-29T04:00:51.363Z,65.50
2022-11-29T04:01:51.410Z,65.00
2022-11-29T04:02:51.361Z,65.10
2022-11-29T04:03:51.338Z,66.80
2022-11-29T04:04:51.311Z,65.40
2022-11-29T04:05:51.329Z,56.90
2022-11-29T04:06:51.292Z,57.60
2022-11-29T04:07:51.335Z,64.30
2022-11-29T04:08:51.296Z,64.00
2022-11-29T04:09:51.247Z,60.80
2022-11-29T04:10:51.234Z,67.40
2022-11-29T04:11:51.221Z,68.00
2022-11-29T04:12:51.225Z,68.50
2022-11-29T04:13:51.196Z,73.40
2022-11-29T04:14:51.199Z,67.50
2022-11-29T04:15:51.218Z,68.90
2022-11-29T04:16:51.218Z,59.60
2022-11-29T04:17:51.143Z,65.10
2022-11-29T04:18:51.133Z,60.50
2022-11-29T04:19:51.133Z,64.20
2022-11-29T04:20:51.104Z,60.40
2022-11-29T04:21:51.172Z,56.10
2022-11-29T04:22:51.090Z,59.20
2022-11-29T04:23:51.086Z,57.70
2022-11-29T04:24:51.088Z,59.90
2022-11-29T04:25:51.044Z,58.90
2022-11-29T04:26:51.038Z,58.20
2022-11-29T04:27:51.012Z,63.00
2022-11-29T04:28:51.023Z,66.10
2022-11-29T04:29:51.004Z,59.60
2022-11-29T04:30:50.999Z,63.20
2022-11-29T04:31:50.961Z,59.20
2022-11-29T04:32:50.951Z,57.40
2022-11-29T04:33:50.937Z,53.80
2022-11-29T04:34:50.946Z,64.20
2022-11-29T04:35:50.909Z,59.70
2022-11-29T04:36:50.898Z,63.50
2022-11-29T04:37:50.886Z,56.00
2022-11-29T04:38:50.869Z,58.10
2022-11-29T04:39:50.874Z,52.80
2022-11-29T04:40:50.844Z,63.40
2022-11-29T04:41:50.848Z,62.90
2022-11-29T04:42:50.828Z,51.30
2022-11-29T04:43:50.807Z,60.70
2022-11-29T04:44:50.837Z,63.30
2022-11-29T04:45:50.780Z,54.90
2022-11-29T04:46:50.767Z,57.60
2022-11-29T04:47:50.752Z,52.50
2022-11-29T04:48:50.744Z,53.60
2022-11-29T04:49:50.745Z,51.30
2022-11-29T04:50:50.720Z,50.80
2022-11-29T04:51:50.707Z,50.40
2022-11-29T04:52:50.691Z,61.30
2022-11-29T04:53:50.721Z,62.90
2022-11-29T04:54:50.678Z,53.40
2022-11-29T04:55:50.665Z,56.10
2022-11-29T04:56:50.638Z,52.10
2022-11-29T04:57:50.621Z,57.20
2022-11-29T04:58:50.611Z,52.10
2022-11-29T04:59:50.613Z,54.80
2022-11-29T05:00:50.614Z,50.60
2022-11-29T05:01:50.612Z,46.10
2022-11-29T05:02:50.627Z,45.20
2022-11-29T05:03:56.753Z,49.30
2022-11-29T05:04:50.554Z,58.40
2022-11-29T05:05:50.520Z,60.70
2022-11-29T05:06:50.508Z,50.70
2022-11-29T05:07:50.512Z,46.10
2022-11-29T05:08:50.487Z,53.30
2022-11-29T05:09:50.466Z,46.60
2022-11-29T05:10:50.474Z,51.10
2022-11-29T05:11:50.448Z,46.60
2022-11-29T05:12:50.428Z,49.50
2022-11-29T05:13:50.420Z,51.20
2022-11-29T05:14:50.404Z,49.70
2022-11-29T05:15:50.532Z,45.40
2022-11-29T05:16:50.401Z,45.70
2022-11-29T05:17:50.368Z,51.40
2022-11-29T05:18:50.362Z,54.80
2022-11-29T05:19:50.341Z,44.90
2022-11-29T05:20:50.340Z,51.70
2022-11-29T05:21:50.314Z,57.10
2022-11-29T05:22:50.300Z,46.70
2022-11-29T05:23:50.291Z,55.10
2022-11-29T05:24:50.274Z,52.30
2022-11-29T05:25:50.280Z,57.10
2022-11-29T05:26:50.254Z,51.40
2022-11-29T05:27:50.240Z,56.10
2022-11-29T05:28:50.222Z,55.00
2022-11-29T05:29:50.212Z,53.40
2022-11-29T05:30:50.241Z,48.60
2022-11-29T05:31:50.186Z,50.00
2022-11-29T05:32:50.197Z,53.80
2022-11-29T05:33:50.160Z,51.70
2022-11-29T05:34:50.803Z,52.80
2022-11-29T05:35:50.149Z,56.30
2022-11-29T05:36:50.129Z,52.30
2022-11-29T05:37:50.110Z,53.00
2022-11-29T05:38:50.093Z,61.20
2022-11-29T05:39:50.159Z,61.40
2022-11-29T05:40:50.080Z,54.30
2022-11-29T05:41:50.056Z,50.30
2022-11-29T05:42:50.042Z,46.30
2022-11-29T05:43:50.035Z,51.60
2022-11-29T05:44:50.015Z,46.60
2022-11-29T05:45:50.019Z,48.30
2022-11-29T05:46:50.004Z,53.70
2022-11-29T05:47:49.978Z,54.20
2022-11-29T05:48:49.986Z,51.70
2022-11-29T05:49:49.971Z,47.60
2022-11-29T05:50:49.960Z,51.80
2022-11-29T05:51:49.928Z,46.30
2022-11-29T05:52:49.915Z,46.20
2022-11-29T05:53:49.898Z,50.70
2022-11-29T05:54:49.884Z,47.10
2022-11-29T05:55:49.890Z,44.80
2022-11-29T05:56:49.859Z,53.60
2022-11-29T05:57:49.847Z,55.20
2022-11-29T05:58:49.832Z,55.90
2022-11-29T05:59:49.823Z,54.80
2022-11-29T06:00:49.824Z,61.30
2022-11-29T06:01:49.847Z,55.20
2022-11-29T06:02:49.847Z,50.70
2022-11-29T06:03:49.769Z,51.20
2022-11-29T06:04:49.777Z,57.80
2022-11-29T06:05:49.768Z,58.40
2022-11-29T06:06:49.733Z,59.60
2022-11-29T06:07:49.786Z,53.10
2022-11-29T06:08:49.703Z,56.60
2022-11-29T06:09:49.701Z,57.60
2022-11-29T06:10:49.707Z,60.50
2022-11-29T06:11:49.693Z,53.50
2022-11-29T06:12:49.655Z,52.00
2022-11-29T06:13:49.641Z,55.70
2022-11-29T06:14:49.631Z,53.20
2022-11-29T06:15:49.644Z,56.90
2022-11-29T06:16:49.624Z,65.50
2022-11-29T06:17:49.589Z,53.00
2022-11-29T06:18:49.578Z,60.20
2022-11-29T06:19:49.568Z,50.50
2022-11-29T06:20:49.582Z,66.90
2022-11-29T06:21:49.581Z,52.50
2022-11-29T06:22:49.526Z,60.40
2022-11-29T06:23:49.511Z,65.50
2022-11-29T06:24:49.500Z,58.80
2022-11-29T06:25:49.492Z,62.70
2022-11-29T06:26:49.493Z,65.80
2022-11-29T06:27:49.462Z,64.10
2022-11-29T06:28:49.450Z,68.30
2022-11-29T06:29:49.437Z,71.20
2022-11-29T06:30:49.420Z,70.10
2022-11-29T06:31:49.482Z,68.00
2022-11-29T06:32:49.415Z,70.50
2022-11-29T06:33:49.410Z,68.30
2022-11-29T06:34:49.373Z,70.60
2022-11-29T06:35:49.366Z,62.70
2022-11-29T06:36:49.377Z,61.90
2022-11-29T06:37:49.332Z,57.70
2022-11-29T06:38:49.318Z,56.50
2022-11-29T06:39:49.307Z,53.40
2022-11-29T06:40:49.295Z,67.90
2022-11-29T06:41:49.294Z,56.00
2022-11-29T06:42:49.266Z,63.90
2022-11-29T06:43:49.254Z,57.70
2022-11-29T06:44:49.240Z,54.10
2022-11-29T06:45:49.230Z,50.80
2022-11-29T06:46:49.312Z,62.50
2022-11-29T06:47:49.209Z,57.30
2022-11-29T06:48:49.192Z,63.70
2022-11-29T06:49:49.176Z,62.80
2022-11-29T06:50:49.164Z,52.50
2022-11-29T06:51:49.179Z,58.00
2022-11-29T06:52:49.157Z,63.70
2022-11-29T06:53:49.127Z,57.80
2022-11-29T06:54:49.112Z,51.80
2022-11-29T06:55:49.099Z,54.20
2022-11-29T06:56:49.108Z,58.70
2022-11-29T06:57:49.081Z,57.50
2022-11-29T06:58:49.058Z,60.80
2022-11-29T06:59:49.048Z,59.70
2022-11-29T07:00:49.062Z,57.80
2022-11-29T07:01:49.057Z,56.70
2022-11-29T07:02:49.033Z,52.50
2022-11-29T07:03:48.999Z,54.30
2022-11-29T07:04:49.367Z,53.30
2022-11-29T07:05:48.978Z,56.50
2022-11-29T07:06:48.956Z,57.80
2022-11-29T07:07:49.021Z,54.30
2022-11-29T07:08:48.953Z,46.70
2022-11-29T07:09:48.919Z,46.70
2022-11-29T07:10:48.906Z,50.50
2022-11-29T07:11:48.898Z,54.80
2022-11-29T07:12:48.890Z,51.50
2022-11-29T07:13:48.865Z,52.80
2022-11-29T07:14:48.856Z,49.50
2022-11-29T07:15:48.874Z,57.00
2022-11-29T07:16:53.178Z,51.80
2022-11-29T07:17:48.830Z,53.00
2022-11-29T07:18:48.804Z,52.80
2022-11-29T07:19:48.789Z,49.70
2022-11-29T07:20:48.772Z,48.20
2022-11-29T07:21:48.771Z,43.90
2022-11-29T07:22:48.767Z,51.70
2022-11-29T07:23:48.739Z,42.80
2022-11-29T07:24:48.745Z,46.30
2022-11-29T07:25:48.712Z,41.20
2022-11-29T07:26:48.697Z,45.30
2022-11-29T07:27:48.705Z,51.50
2022-11-29T07:28:48.669Z,44.60
2022-11-29T07:29:48.671Z,42.10
2022-11-29T07:30:48.643Z,45.00
2022-11-29T07:31:48.739Z,41.90
2022-11-29T07:32:50.907Z,42.90
2022-11-29T07:33:48.607Z,45.40
2022-11-29T07:34:48.770Z,47.70
2022-11-29T07:35:48.579Z,38.80
2022-11-29T07:36:48.567Z,37.80
2022-11-29T07:37:48.572Z,48.60
2022-11-29T07:38:48.549Z,42.10
2022-11-29T07:39:48.528Z,45.20
2022-11-29T07:40:48.533Z,44.10
2022-11-29T07:41:48.529Z,45.20
2022-11-29T07:42:48.502Z,47.80
2022-11-29T07:43:48.478Z,40.60
2022-11-29T07:44:48.612Z,48.40
2022-11-29T07:45:48.451Z,45.10
2022-11-29T07:46:48.516Z,43.70
2022-11-29T07:47:48.443Z,44.20
2022-11-29T07:48:48.413Z,42.40
2022-11-29T07:49:48.403Z,42.50
2022-11-29T07:50:48.386Z,41.60
2022-11-29T07:51:48.373Z,42.00
2022-11-29T07:52:48.384Z,34.30
2022-11-29T07:53:48.348Z,33.20
2022-11-29T07:54:48.511Z,36.20
2022-11-29T07:55:48.320Z,32.60
2022-11-29T07:56:48.330Z,32.20
2022-11-29T07:57:48.310Z,35.30
2022-11-29T07:58:48.377Z,34.30
2022-11-29T07:59:48.278Z,35.50
2022-11-29T08:00:48.319Z,37.70
2022-11-29T08:01:48.309Z,36.20
2022-11-29T08:02:48.252Z,37.40
2022-11-29T08:03:48.226Z,36.00
2022-11-29T08:04:48.372Z,35.20
2022-11-29T08:05:48.200Z,35.60
2022-11-29T08:06:48.178Z,33.60
2022-11-29T08:07:48.243Z,38.50
2022-11-29T08:08:48.158Z,40.70
2022-11-29T08:09:48.343Z,40.10
2022-11-29T08:10:48.123Z,38.50
2022-11-29T08:11:48.115Z,35.90
2022-11-29T08:12:48.141Z,36.40
2022-11-29T08:13:48.095Z,36.30
2022-11-29T08:14:48.200Z,34.80
2022-11-29T08:15:48.065Z,35.80
2022-11-29T08:16:48.109Z,35.50
2022-11-29T08:17:48.043Z,35.80
2022-11-29T08:18:48.042Z,34.50
2022-11-29T08:19:48.013Z,35.20
2022-11-29T08:20:47.998Z,34.20
2022-11-29T08:21:48.004Z,33.00
2022-11-29T08:22:47.974Z,32.80
2022-11-29T08:23:47.981Z,33.80
2022-11-29T08:24:48.331Z,30.80
2022-11-29T08:25:47.931Z,30.80
2022-11-29T08:26:47.922Z,30.70
2022-11-29T08:27:47.905Z,28.80
2022-11-29T08:28:47.938Z,31.60
2022-11-29T08:29:47.883Z,28.20
2022-11-29T08:30:47.869Z,29.30
2022-11-29T08:31:47.891Z,31.10
2022-11-29T08:32:51.364Z,32.60
2022-11-29T08:33:47.841Z,32.20
2022-11-29T08:34:48.098Z,30.70
2022-11-29T08:35:47.802Z,31.60
2022-11-29T08:36:47.806Z,30.10
2022-11-29T08:37:47.777Z,32.60
2022-11-29T08:38:47.791Z,30.80
2022-11-29T08:39:47.755Z,36.80
2022-11-29T08:40:47.740Z,33.70
2022-11-29T08:41:47.729Z,34.40
2022-11-29T08:42:47.711Z,34.80
2022-11-29T08:43:47.715Z,36.50
2022-11-29T08:44:47.914Z,32.20
2022-11-29T08:45:47.704Z,36.30
2022-11-29T08:46:47.668Z,34.50
2022-11-29T08:47:47.651Z,35.00
2022-11-29T08:48:47.656Z,33.20
2022-11-29T08:49:47.626Z,33.00
2022-11-29T08:50:47.607Z,35.30
2022-11-29T08:51:47.599Z,35.60
2022-11-29T08:52:47.587Z,33.10
2022-11-29T08:53:47.592Z,35.70
2022-11-29T08:54:47.934Z,31.80
2022-11-29T08:55:47.551Z,33.30
2022-11-29T08:57:38.009Z,34.30
2022-11-29T08:57:48.522Z,36.30
2022-11-29T08:58:47.526Z,32.70
2022-11-29T08:59:47.501Z,33.40
2022-11-29T09:00:47.616Z,33.30
2022-11-29T09:01:47.538Z,34.00
2022-11-29T09:02:47.469Z,36.80
2022-11-29T09:03:47.464Z,37.60
2022-11-29T09:04:47.448Z,35.70
2022-11-29T09:05:47.417Z,32.60
2022-11-29T09:06:47.406Z,35.10
2022-11-29T09:07:47.454Z,34.00
2022-11-29T09:08:47.392Z,34.10
2022-11-29T09:09:47.377Z,35.50
2022-11-29T09:10:47.357Z,35.40
2022-11-29T09:11:49.588Z,36.80
2022-11-29T09:12:47.331Z,39.20
2022-11-29T09:13:47.341Z,37.60
2022-11-29T09:14:47.406Z,35.10
2022-11-29T09:15:47.291Z,36.30
2022-11-29T09:16:47.376Z,35.80
2022-11-29T09:17:47.268Z,35.10
2022-11-29T09:18:51.376Z,35.80
2022-11-29T09:19:47.243Z,36.80
2022-11-29T09:20:47.227Z,38.70
2022-11-29T09:21:47.220Z,39.20
2022-11-29T09:22:47.204Z,40.30
2022-11-29T09:23:47.208Z,36.80
2022-11-29T09:24:47.573Z,37.20
2022-11-29T09:25:47.167Z,40.20
2022-11-29T09:26:47.148Z,39.10
2022-11-29T09:27:47.137Z,41.80
2022-11-29T09:28:47.148Z,40.50
2022-11-29T09:29:47.114Z,40.00
2022-11-29T09:30:47.106Z,42.90
2022-11-29T09:31:47.158Z,45.40
2022-11-29T09:32:47.091Z,40.50
2022-11-29T09:33:47.061Z,41.80
2022-11-29T09:34:47.198Z,40.70
2022-11-29T09:35:47.036Z,44.40
2022-11-29T09:36:47.023Z,41.90
2022-11-29T09:37:47.011Z,43.90
2022-11-29T09:38:46.996Z,45.00
2022-11-29T09:39:47.003Z,42.90
2022-11-29T09:40:46.978Z,44.00
2022-11-29T09:41:48.632Z,45.10
2022-11-29T09:42:46.949Z,44.80
2022-11-29T09:43:46.935Z,49.00
2022-11-29T09:44:47.391Z,46.80
2022-11-29T09:45:47.028Z,45.00
2022-11-29T09:46:46.897Z,43.50
2022-11-29T09:47:46.880Z,43.70
2022-11-29T09:48:46.898Z,48.30
2022-11-29T09:49:46.874Z,44.80
2022-11-29T09:50:46.843Z,48.00
2022-11-29T09:51:46.835Z,48.30
2022-11-29T09:52:46.820Z,44.60
2022-11-29T09:53:46.805Z,44.70
2022-11-29T09:54:47.124Z,47.00
2022-11-29T09:55:46.782Z,46.30
2022-11-29T09:56:46.780Z,48.30
2022-11-29T09:57:46.753Z,47.40
2022-11-29T09:58:46.744Z,45.20
2022-11-29T09:59:46.748Z,44.90
2022-11-29T10:00:46.780Z,47.60
2022-11-29T10:01:46.704Z,45.10
2022-11-29T10:02:46.751Z,48.50
2022-11-29T10:03:46.679Z,45.90
2022-11-29T10:04:46.993Z,45.40
2022-11-29T10:05:46.655Z,47.20
2022-11-29T10:06:46.643Z,46.70
2022-11-29T10:07:46.663Z,47.00
2022-11-29T10:08:46.615Z,47.50
2022-11-29T10:09:46.618Z,44.40
2022-11-29T10:10:46.591Z,44.20
2022-11-29T10:11:46.592Z,47.80
2022-11-29T10:12:46.587Z,43.40
2022-11-29T10:13:46.552Z,43.10
2022-11-29T10:14:46.887Z,45.00
2022-11-29T10:15:46.546Z,42.60
2022-11-29T10:16:46.552Z,44.10
2022-11-29T10:17:46.506Z,42.50
2022-11-29T10:18:46.486Z,47.50
2022-11-29T10:19:46.490Z,46.80
2022-11-29T10:20:49.274Z,48.30
2022-11-29T10:21:46.455Z,45.50
2022-11-29T10:22:46.438Z,45.70
2022-11-29T10:23:46.422Z,44.30
2022-11-29T10:24:46.666Z,48.30
2022-11-29T10:25:46.398Z,45.10
2022-11-29T10:26:46.388Z,44.30
2022-11-29T10:27:46.377Z,48.60
2022-11-29T10:28:46.361Z,42.30
2022-11-29T10:29:46.364Z,43.90
2022-11-29T10:30:46.397Z,51.50
2022-11-29T10:31:46.326Z,47.90
2022-11-29T10:32:46.319Z,52.00
2022-11-29T10:33:46.297Z,49.00
2022-11-29T10:34:46.536Z,53.80
2022-11-29T10:35:46.282Z,51.00
2022-11-29T10:36:46.283Z,52.60
2022-11-29T10:38:07.722Z,52.30
2022-11-29T10:38:46.238Z,56.00
2022-11-29T10:39:46.217Z,54.70
2022-11-29T10:40:46.221Z,50.60
2022-11-29T10:41:46.194Z,53.80
2022-11-29T10:42:46.182Z,51.30
2022-11-29T10:43:46.174Z,51.00
2022-11-29T10:44:46.528Z,48.50
2022-11-29T10:45:46.223Z,54.00
2022-11-29T10:46:46.130Z,51.10
2022-11-29T10:47:46.114Z,48.00
2022-11-29T10:48:46.106Z,54.40
2022-11-29T10:49:46.092Z,49.10
2022-11-29T10:50:46.094Z,47.00
2022-11-29T10:51:46.087Z,49.50
2022-11-29T10:52:46.081Z,46.00
2022-11-29T10:53:46.048Z,47.30
2022-11-29T10:54:46.308Z,45.50
2022-11-29T10:55:46.039Z,47.50
2022-11-29T10:56:46.003Z,43.40
2022-11-29T10:57:45.988Z,48.70
2022-11-29T10:58:45.978Z,49.10
2022-11-29T10:59:45.961Z,43.70
2022-11-29T11:00:45.966Z,43.80
2022-11-29T11:01:45.967Z,45.70
2022-11-29T11:02:45.921Z,47.30
2022-11-29T11:03:51.452Z,43.20
2022-11-29T11:04:47.271Z,42.80
2022-11-29T11:05:45.940Z,45.30
2022-11-29T11:06:45.868Z,41.40
2022-11-29T11:07:45.895Z,41.00
2022-11-29T11:08:45.869Z,43.80
2022-11-29T11:09:45.830Z,44.00
2022-11-29T11:10:51.016Z,42.70
2022-11-29T11:11:45.804Z,42.90
2022-11-29T11:12:45.795Z,42.50
2022-11-29T11:13:45.776Z,42.40
2022-11-29T11:14:45.893Z,41.90
2022-11-29T11:15:45.765Z,44.00
2022-11-29T11:16:45.811Z,41.30
2022-11-29T11:17:45.727Z,41.40
2022-11-29T11:18:45.712Z,42.30
2022-11-29T11:19:45.697Z,43.30
2022-11-29T11:20:45.717Z,40.00
2022-11-29T11:21:45.674Z,40.90
2022-11-29T11:22:45.662Z,43.10
2022-11-29T11:23:45.646Z,44.00
2022-11-29T11:24:45.885Z,44.40
2022-11-29T11:25:45.636Z,44.80
2022-11-29T11:26:45.606Z,44.10
2022-11-29T11:27:45.590Z,43.70
2022-11-29T11:28:45.582Z,45.30
2022-11-29T11:29:45.571Z,42.90
2022-11-29T11:30:45.747Z,44.10
2022-11-29T11:31:45.542Z,42.40
2022-11-29T11:32:45.531Z,47.10
2022-11-29T11:33:45.513Z,44.60
2022-11-29T11:34:45.727Z,45.10
2022-11-29T11:35:45.506Z,42.80
2022-11-29T11:36:45.473Z,45.70
2022-11-29T11:37:45.461Z,46.00
2022-11-29T11:38:45.449Z,43.30
2022-11-29T11:39:45.479Z,46.10
2022-11-29T11:40:45.460Z,49.70
2022-11-29T11:41:45.409Z,78.80
2022-11-29T11:42:45.398Z,64.90
2022-11-29T11:43:45.386Z,58.30
2022-11-29T11:44:47.450Z,48.90
2022-11-29T11:45:45.444Z,51.60
2022-11-29T11:46:45.375Z,53.60
2022-11-29T11:47:45.333Z,50.20
2022-11-29T11:48:45.336Z,54.20
2022-11-29T11:49:45.324Z,50.60
2022-11-29T11:50:45.318Z,56.80
2022-11-29T11:51:45.296Z,52.50
2022-11-29T11:52:50.332Z,49.90
2022-11-29T11:53:46.264Z,51.30
2022-11-29T11:54:45.431Z,51.70
2022-11-29T11:55:45.230Z,47.00
2022-11-29T11:56:45.255Z,49.90
2022-11-29T11:57:45.206Z,45.70
2022-11-29T11:58:45.200Z,47.50
2022-11-29T11:59:45.179Z,43.40
2022-11-29T12:01:03.601Z,46.50
2022-11-29T12:01:46.172Z,42.30
2022-11-29T12:02:45.244Z,41.00
2022-11-29T12:03:45.211Z,48.80
2022-11-29T12:04:45.466Z,47.20
2022-11-29T12:05:46.433Z,45.50
2022-11-29T12:06:45.136Z,42.40
2022-11-29T12:08:07.300Z,43.20
2022-11-29T12:08:46.119Z,45.00
2022-11-29T12:09:45.047Z,43.10
2022-11-29T12:10:45.040Z,43.50
2022-11-29T12:11:45.041Z,44.90
2022-11-29T12:12:45.034Z,46.50
2022-11-29T12:13:44.999Z,43.10
2022-11-29T12:14:45.217Z,42.90
2022-11-29T12:15:45.063Z,44.30
2022-11-29T12:16:44.979Z,47.70
2022-11-29T12:17:44.953Z,47.10
2022-11-29T12:18:44.935Z,46.30
2022-11-29T12:19:44.923Z,47.50
2022-11-29T12:20:44.921Z,46.50
2022-11-29T12:21:44.912Z,41.70
2022-11-29T12:22:48.317Z,47.80
2022-11-29T12:23:44.869Z,45.50
2022-11-29T12:24:45.205Z,44.30
2022-11-29T12:25:44.920Z,43.80
2022-11-29T12:27:00.527Z,44.10
2022-11-29T12:27:45.818Z,49.80
2022-11-29T12:28:44.847Z,45.60
2022-11-29T12:29:44.800Z,45.10
2022-11-29T12:30:44.830Z,41.30
2022-11-29T12:31:44.790Z,49.50
2022-11-29T12:32:44.758Z,44.80
2022-11-29T12:33:44.743Z,49.70
2022-11-29T12:34:45.368Z,48.50
2022-11-29T12:35:44.723Z,48.00
2022-11-29T12:36:44.725Z,50.40
2022-11-29T12:37:44.693Z,47.00
2022-11-29T12:38:44.683Z,48.50
2022-11-29T12:39:44.665Z,48.80
2022-11-29T12:40:44.657Z,46.80
2022-11-29T12:41:48.263Z,49.30
2022-11-29T12:42:44.632Z,48.70
2022-11-29T12:43:44.615Z,53.00
2022-11-29T12:44:44.934Z,49.40
2022-11-29T12:45:44.592Z,48.10
2022-11-29T12:46:44.626Z,53.40
2022-11-29T12:47:50.340Z,51.30
2022-11-29T12:48:44.563Z,49.60
2022-11-29T12:49:44.543Z,52.70
2022-11-29T12:50:44.533Z,53.00
2022-11-29T12:51:44.514Z,51.50
2022-11-29T12:52:44.522Z,52.00